createdAt,value
2017-05-05T00:00:00.870Z,96.6
2017-05-05T00:01:00.847Z,96.31
2017-05-05T00:02:00.830Z,96.5
2017-05-05T00:03:00.803Z,97.64
2017-05-05T00:04:00.783Z,96.69
2017-05-05T00:05:00.449Z,96.69
2017-05-05T00:06:00.736Z,96.89
2017-05-05T00:07:00.702Z,97.64
2017-05-05T00:08:00.684Z,97.55
2017-05-05T00:09:00.652Z,97.45
2017-05-05T00:10:00.642Z,97.55
2017-05-05T00:11:00.305Z,96.89
2017-05-05T00:12:00.634Z,97.64
2017-05-05T00:13:00.565Z,97.08
2017-05-05T00:14:00.538Z,97.13
2017-05-05T00:15:00.510Z,96.94
2017-05-05T00:16:00.489Z,96.65
2017-05-05T00:17:00.467Z,96.89
2017-05-05T00:18:00.443Z,96.46
2017-05-05T00:19:00.420Z,95.98
2017-05-05T00:20:00.394Z,95.98
2017-05-05T00:21:00.381Z,96.36
2017-05-05T00:22:00.346Z,96.17
2017-05-05T00:23:00.325Z,95.89
2017-05-05T00:24:00.294Z,96.22
2017-05-05T00:25:00.277Z,96.5
2017-05-05T00:26:00.255Z,96.5
2017-05-05T00:27:00.228Z,96.26
2017-05-05T00:28:00.209Z,96.08
2017-05-05T00:29:00.188Z,96.22
2017-05-05T00:29:59.855Z,95.89
2017-05-05T00:31:00.141Z,96.31
2017-05-05T00:31:59.808Z,96.31
2017-05-05T00:32:59.786Z,96.12
2017-05-05T00:34:00.064Z,96.41
2017-05-05T00:35:00.046Z,96.6
2017-05-05T00:36:00.023Z,96.31
2017-05-05T00:36:59.992Z,95.98
2017-05-05T00:37:59.969Z,96.74
2017-05-05T00:38:59.955Z,96.5
2017-05-05T00:39:59.924Z,96.17
2017-05-05T00:40:59.909Z,96.17
2017-05-05T00:41:59.876Z,96.26
2017-05-05T00:42:59.855Z,96.46
2017-05-05T00:43:59.824Z,95.79
2017-05-05T00:44:59.806Z,95.7
2017-05-05T00:45:59.786Z,95.89
2017-05-05T00:46:59.755Z,96.08
2017-05-05T00:47:59.741Z,95.51
2017-05-05T00:48:59.707Z,95.51
2017-05-05T00:49:59.687Z,95.32
2017-05-05T00:50:59.663Z,95.03
2017-05-05T00:51:59.686Z,95.41
2017-05-05T00:52:59.614Z,95.22
2017-05-05T00:53:59.592Z,95.51
2017-05-05T00:54:59.262Z,95.89
2017-05-05T00:55:59.539Z,95.6
2017-05-05T00:56:59.524Z,95.41
2017-05-05T00:57:59.500Z,95.65
2017-05-05T00:58:59.485Z,95.65
2017-05-05T00:59:59.444Z,95.75
2017-05-05T01:00:59.427Z,96.31
2017-05-05T01:01:59.402Z,96.22
2017-05-05T01:02:59.382Z,96.31
2017-05-05T01:03:59.357Z,96.22
2017-05-05T01:04:59.333Z,96.22
2017-05-05T01:05:59.309Z,96.31
2017-05-05T01:06:59.291Z,96.6
2017-05-05T01:07:59.272Z,96.41
2017-05-05T01:08:59.240Z,96.31
2017-05-05T01:09:59.212Z,96.69
2017-05-05T01:10:58.891Z,96.98
2017-05-05T01:11:59.167Z,96.79
2017-05-05T01:12:59.147Z,96.12
2017-05-05T01:13:59.123Z,96.41
2017-05-05T01:14:59.092Z,96.6
2017-05-05T01:15:59.072Z,97.08
2017-05-05T01:16:59.053Z,97.08
2017-05-05T01:17:59.034Z,97.08
2017-05-05T01:18:59.005Z,96.89
2017-05-05T01:19:58.977Z,97.45
2017-05-05T01:20:58.956Z,97.45
2017-05-05T01:21:58.936Z,97.45
2017-05-05T01:22:58.914Z,97.64
2017-05-05T01:23:58.883Z,97.27
2017-05-05T01:24:58.872Z,97.17
2017-05-05T01:25:58.854Z,97.83
2017-05-05T01:26:58.821Z,97.45
2017-05-05T01:27:58.790Z,97.83
2017-05-05T01:28:58.773Z,98.31
2017-05-05T01:29:58.747Z,98.31
2017-05-05T01:30:58.718Z,98.12
2017-05-05T01:31:58.697Z,98.22
2017-05-05T01:32:58.668Z,98.41
2017-05-05T01:33:58.651Z,98.22
2017-05-05T01:34:58.629Z,98.12
2017-05-05T01:35:58.598Z,99.07
2017-05-05T01:36:58.571Z,98.22
2017-05-05T01:37:58.553Z,98.79
2017-05-05T01:38:58.522Z,99.16
2017-05-05T01:39:58.502Z,98.69
2017-05-05T01:40:58.479Z,98.79
2017-05-05T01:41:58.451Z,98.97
2017-05-05T01:42:58.433Z,98.79
2017-05-05T01:43:58.415Z,98.69
2017-05-05T01:44:58.390Z,98.69
2017-05-05T01:45:58.365Z,98.69
2017-05-05T01:46:58.336Z,98.97
2017-05-05T01:47:58.312Z,98.88
2017-05-05T01:48:57.982Z,98.79
2017-05-05T01:49:58.266Z,98.88
2017-05-05T01:50:58.238Z,98.88
2017-05-05T01:51:58.268Z,98.69
2017-05-05T01:52:58.195Z,98.69
2017-05-05T01:53:58.171Z,98.88
2017-05-05T01:54:57.847Z,98.69
2017-05-05T01:55:58.130Z,98.88
2017-05-05T01:56:58.098Z,98.6
2017-05-05T01:57:57.774Z,98.6
2017-05-05T01:58:58.053Z,98.88
2017-05-05T01:59:58.020Z,98.88
2017-05-05T02:00:58.001Z,98.88
2017-05-05T02:01:57.979Z,98.6
2017-05-05T02:02:57.962Z,98.88
2017-05-05T02:03:57.982Z,98.97
2017-05-05T02:04:57.619Z,98.69
2017-05-05T02:05:57.882Z,99.16
2017-05-05T02:06:57.858Z,98.88
2017-05-05T02:07:57.838Z,99.07
2017-05-05T02:08:57.811Z,99.16
2017-05-05T02:09:57.791Z,99.64
2017-05-05T02:10:57.769Z,99.36
2017-05-05T02:11:57.750Z,99.45
2017-05-05T02:12:57.718Z,99.74
2017-05-05T02:13:57.695Z,99.45
2017-05-05T02:14:57.677Z,99.45
2017-05-05T02:15:57.647Z,99.36
2017-05-05T02:16:57.628Z,99.64
2017-05-05T02:17:57.599Z,99.36
2017-05-05T02:18:57.572Z,98.97
2017-05-05T02:19:57.555Z,99.16
2017-05-05T02:20:57.529Z,99.16
2017-05-05T02:21:57.503Z,99.55
2017-05-05T02:22:57.734Z,99.55
2017-05-05T02:23:57.458Z,99.55
2017-05-05T02:24:57.439Z,99.16
2017-05-05T02:25:57.411Z,99.55
2017-05-05T02:26:57.384Z,99.36
2017-05-05T02:27:57.374Z,98.69
2017-05-05T02:28:57.344Z,99.45
2017-05-05T02:29:57.311Z,98.79
2017-05-05T02:30:56.993Z,99.07
2017-05-05T02:31:56.963Z,99.36
2017-05-05T02:32:57.239Z,99.45
2017-05-05T02:33:57.218Z,99.36
2017-05-05T02:34:57.195Z,99.26
2017-05-05T02:35:57.179Z,99.64
2017-05-05T02:36:57.145Z,99.36
2017-05-05T02:37:57.124Z,99.64
2017-05-05T02:38:57.101Z,99.99
2017-05-05T02:39:57.074Z,99.84
2017-05-05T02:40:57.054Z,99.99
2017-05-05T02:41:56.730Z,99.93
2017-05-05T02:42:57.005Z,99.93
2017-05-05T02:43:56.984Z,99.74
2017-05-05T02:44:56.956Z,99.36
2017-05-05T02:45:56.934Z,99.99
2017-05-05T02:46:56.909Z,99.99
2017-05-05T02:47:56.887Z,99.84
2017-05-05T02:48:56.863Z,99.93
2017-05-05T02:49:56.838Z,99.74
2017-05-05T02:50:56.815Z,99.64
2017-05-05T02:51:56.794Z,99.84
2017-05-05T02:52:56.767Z,99.84
2017-05-05T02:53:56.745Z,99.93
2017-05-05T02:54:56.726Z,99.84
2017-05-05T02:55:56.696Z,99.84
2017-05-05T02:56:56.722Z,99.59
2017-05-05T02:57:56.660Z,99.5
2017-05-05T02:58:56.626Z,99.59
2017-05-05T02:59:56.610Z,99.99
2017-05-05T03:00:56.579Z,99.99
2017-05-05T03:01:56.563Z,99.99
2017-05-05T03:02:56.533Z,99.99
2017-05-05T03:03:56.509Z,99.99
2017-05-05T03:04:56.487Z,99.99
2017-05-05T03:05:56.457Z,99.99
2017-05-05T03:06:56.440Z,99.78
2017-05-05T03:07:56.421Z,99.97
2017-05-05T03:08:56.387Z,99.99
2017-05-05T03:09:56.372Z,99.97
2017-05-05T03:10:56.334Z,99.99
2017-05-05T03:11:56.314Z,99.99
2017-05-05T03:12:56.292Z,99.99
2017-05-05T03:13:55.964Z,99.99
2017-05-05T03:14:56.242Z,99.99
2017-05-05T03:15:56.222Z,99.99
2017-05-05T03:16:56.191Z,99.99
2017-05-05T03:17:55.880Z,99.99
2017-05-05T03:18:56.146Z,99.99
2017-05-05T03:19:56.122Z,99.99
2017-05-05T03:20:55.798Z,99.99
2017-05-05T03:21:56.074Z,99.99
2017-05-05T03:22:55.744Z,99.99
2017-05-05T03:23:56.027Z,99.99
2017-05-05T03:24:56.004Z,99.99
2017-05-05T03:25:56.035Z,99.99
2017-05-05T03:26:55.959Z,99.99
2017-05-05T03:27:55.937Z,99.99
2017-05-05T03:28:55.903Z,99.99
2017-05-05T03:29:55.579Z,99.99
2017-05-05T03:30:55.859Z,99.99
2017-05-05T03:31:55.835Z,99.99
2017-05-05T03:32:55.812Z,99.99
2017-05-05T03:33:55.793Z,99.99
2017-05-05T03:34:55.763Z,99.99
2017-05-05T03:35:55.792Z,99.99
2017-05-05T03:36:55.714Z,99.99
2017-05-05T03:37:55.697Z,99.99
2017-05-05T03:38:55.675Z,99.99
2017-05-05T03:39:55.648Z,99.99
2017-05-05T03:40:55.614Z,99.99
2017-05-05T03:41:55.593Z,99.99
2017-05-05T03:42:55.572Z,99.99
2017-05-05T03:43:55.544Z,99.99
2017-05-05T03:44:55.527Z,99.99
2017-05-05T03:45:55.498Z,99.99
2017-05-05T03:46:55.490Z,99.99
2017-05-05T03:47:55.459Z,99.99
2017-05-05T03:48:55.433Z,99.99
2017-05-05T03:49:55.661Z,99.99
2017-05-05T03:50:55.385Z,99.99
2017-05-05T03:51:55.364Z,99.99
2017-05-05T03:52:55.339Z,99.99
2017-05-05T03:53:55.311Z,99.99
2017-05-05T03:54:55.283Z,99.99
2017-05-05T03:55:55.261Z,99.99
2017-05-05T03:56:55.240Z,99.99
2017-05-05T03:57:55.211Z,99.99
2017-05-05T03:58:55.193Z,99.99
2017-05-05T03:59:55.172Z,99.99
2017-05-05T04:00:55.141Z,99.99
2017-05-05T04:01:55.118Z,99.99
2017-05-05T04:02:55.093Z,99.99
2017-05-05T04:03:55.121Z,99.99
2017-05-05T04:04:55.050Z,99.99
2017-05-05T04:05:55.022Z,99.99
2017-05-05T04:06:55.000Z,99.99
2017-05-05T04:07:54.979Z,99.99
2017-05-05T04:08:54.949Z,99.99
2017-05-05T04:09:54.927Z,99.99
2017-05-05T04:10:54.905Z,99.99
2017-05-05T04:11:54.876Z,99.99
2017-05-05T04:12:54.855Z,99.99
2017-05-05T04:13:54.835Z,99.99
2017-05-05T04:14:54.808Z,99.99
2017-05-05T04:15:54.785Z,99.99
2017-05-05T04:16:54.766Z,99.99
2017-05-05T04:17:54.736Z,99.99
2017-05-05T04:18:54.724Z,99.99
2017-05-05T04:19:54.689Z,99.99
2017-05-05T04:20:54.659Z,99.99
2017-05-05T04:21:54.640Z,99.99
2017-05-05T04:22:54.617Z,99.99
2017-05-05T04:23:54.645Z,99.99
2017-05-05T04:24:54.567Z,99.99
2017-05-05T04:25:54.543Z,99.99
2017-05-05T04:26:54.523Z,99.99
2017-05-05T04:27:54.497Z,99.99
2017-05-05T04:28:54.478Z,99.99
2017-05-05T04:29:54.454Z,99.99
2017-05-05T04:30:54.424Z,99.99
2017-05-05T04:31:54.400Z,99.99
2017-05-05T04:32:54.379Z,99.99
2017-05-05T04:33:54.350Z,99.99
2017-05-05T04:34:54.327Z,99.99
2017-05-05T04:35:54.315Z,99.99
2017-05-05T04:36:54.277Z,99.99
2017-05-05T04:37:54.259Z,99.99
2017-05-05T04:38:54.283Z,99.99
2017-05-05T04:39:54.209Z,99.99
2017-05-05T04:40:54.185Z,99.99
2017-05-05T04:41:54.211Z,99.99
2017-05-05T04:42:54.139Z,99.99
2017-05-05T04:43:54.113Z,99.99
2017-05-05T04:44:54.096Z,99.99
2017-05-05T04:45:54.063Z,99.99
2017-05-05T04:46:54.043Z,99.99
2017-05-05T04:47:54.015Z,99.99
2017-05-05T04:48:53.996Z,99.99
2017-05-05T04:49:53.670Z,99.99
2017-05-05T04:50:53.956Z,99.99
2017-05-05T04:51:53.920Z,99.99
2017-05-05T04:52:53.898Z,99.99
2017-05-05T04:53:53.871Z,99.99
2017-05-05T04:54:53.851Z,99.99
2017-05-05T04:55:53.827Z,99.99
2017-05-05T04:56:53.823Z,99.99
2017-05-05T04:57:53.772Z,99.99
2017-05-05T04:58:53.755Z,99.99
2017-05-05T04:59:53.783Z,99.99
2017-05-05T05:00:53.707Z,99.99
2017-05-05T05:01:53.679Z,99.99
2017-05-05T05:02:53.708Z,99.99
2017-05-05T05:03:53.637Z,99.99
2017-05-05T05:04:53.610Z,99.99
2017-05-05T05:05:53.597Z,99.99
2017-05-05T05:06:53.563Z,99.99
2017-05-05T05:07:53.543Z,99.99
2017-05-05T05:08:53.515Z,99.88
2017-05-05T05:09:53.497Z,99.97
2017-05-05T05:10:53.470Z,99.99
2017-05-05T05:11:53.440Z,99.99
2017-05-05T05:12:53.418Z,99.99
2017-05-05T05:13:53.398Z,99.99
2017-05-05T05:14:53.375Z,99.99
2017-05-05T05:15:53.346Z,99.97
2017-05-05T05:16:53.325Z,99.69
2017-05-05T05:17:53.300Z,99.99
2017-05-05T05:18:53.283Z,99.99
2017-05-05T05:19:52.951Z,99.99
2017-05-05T05:20:53.230Z,99.69
2017-05-05T05:21:53.306Z,99.99
2017-05-05T05:22:53.176Z,99.21
2017-05-05T05:23:53.155Z,99.4
2017-05-05T05:24:53.137Z,99.97
2017-05-05T05:25:53.121Z,99.59
2017-05-05T05:26:53.083Z,99.88
2017-05-05T05:27:53.059Z,99.69
2017-05-05T05:28:53.033Z,99.69
2017-05-05T05:29:53.017Z,99.88
2017-05-05T05:30:53.040Z,99.4
2017-05-05T05:31:52.964Z,99.02
2017-05-05T05:32:52.942Z,99.88
2017-05-05T05:33:52.926Z,99.59
2017-05-05T05:34:52.894Z,99.5
2017-05-05T05:35:52.870Z,99.55
2017-05-05T05:36:52.847Z,99.4
2017-05-05T05:37:52.826Z,99.4
2017-05-05T05:38:52.801Z,99.21
2017-05-05T05:39:52.776Z,99.4
2017-05-05T05:40:52.751Z,99.5
2017-05-05T05:41:52.450Z,99.4
2017-05-05T05:42:52.700Z,99.4
2017-05-05T05:43:52.676Z,99.4
2017-05-05T05:44:52.652Z,99.11
2017-05-05T05:45:52.631Z,99.11
2017-05-05T05:46:52.601Z,99.21
2017-05-05T05:47:52.583Z,99.07
2017-05-05T05:48:52.563Z,98.55
2017-05-05T05:49:52.535Z,99.16
2017-05-05T05:50:52.511Z,99.11
2017-05-05T05:51:52.490Z,99.16
2017-05-05T05:52:52.467Z,99.11
2017-05-05T05:53:52.440Z,98.6
2017-05-05T05:54:52.421Z,98.64
2017-05-05T05:55:52.394Z,98.74
2017-05-05T05:56:52.416Z,98.6
2017-05-05T05:57:52.349Z,98.5
2017-05-05T05:58:52.318Z,98.83
2017-05-05T05:59:52.305Z,98.79
2017-05-05T06:00:52.281Z,98.69
2017-05-05T06:01:52.259Z,98.93
2017-05-05T06:02:52.234Z,98.69
2017-05-05T06:03:52.450Z,98.88
2017-05-05T06:04:52.190Z,98.74
2017-05-05T06:05:52.150Z,98.88
2017-05-05T06:06:51.831Z,98.22
2017-05-05T06:07:52.104Z,98.79
2017-05-05T06:08:52.087Z,98.88
2017-05-05T06:09:51.766Z,98.5
2017-05-05T06:10:52.045Z,98.5
2017-05-05T06:11:52.008Z,98.64
2017-05-05T06:12:51.987Z,98.79
2017-05-05T06:13:51.966Z,98.5
2017-05-05T06:14:51.941Z,98.12
2017-05-05T06:15:51.914Z,98.12
2017-05-05T06:16:51.887Z,98.26
2017-05-05T06:17:51.874Z,98.36
2017-05-05T06:18:51.844Z,98.64
2017-05-05T06:19:51.815Z,98.74
2017-05-05T06:20:51.835Z,98.74
2017-05-05T06:21:51.767Z,98.17
2017-05-05T06:22:51.793Z,98.22
2017-05-05T06:23:51.770Z,98.26
2017-05-05T06:24:51.697Z,98.17
2017-05-05T06:25:51.685Z,98.17
2017-05-05T06:26:51.650Z,98.93
2017-05-05T06:27:51.630Z,98.74
2017-05-05T06:28:51.602Z,98.55
2017-05-05T06:29:51.837Z,98.07
2017-05-05T06:30:51.556Z,98.17
2017-05-05T06:31:51.539Z,97.78
2017-05-05T06:32:51.513Z,97.97
2017-05-05T06:33:51.198Z,97.88
2017-05-05T06:34:51.463Z,98.07
2017-05-05T06:35:51.434Z,98.07
2017-05-05T06:36:51.410Z,98.22
2017-05-05T06:37:51.393Z,98.17
2017-05-05T06:38:51.365Z,98.36
2017-05-05T06:39:51.346Z,98.07
2017-05-05T06:40:51.322Z,97.6
2017-05-05T06:41:50.989Z,97.88
2017-05-05T06:42:51.318Z,97.97
2017-05-05T06:43:51.248Z,97.74
2017-05-05T06:44:51.218Z,98.31
2017-05-05T06:45:51.199Z,97.93
2017-05-05T06:46:51.179Z,98.03
2017-05-05T06:47:51.146Z,97.88
2017-05-05T06:48:51.127Z,98.22
2017-05-05T06:49:51.105Z,97.93
2017-05-05T06:50:51.081Z,98.22
2017-05-05T06:51:51.055Z,98.31
2017-05-05T06:52:51.044Z,98.03
2017-05-05T06:53:51.059Z,97.27
2017-05-05T06:54:50.988Z,97.64
2017-05-05T06:55:50.963Z,97.27
2017-05-05T06:56:50.941Z,97.45
2017-05-05T06:57:50.916Z,97.27
2017-05-05T06:58:50.898Z,97.36
2017-05-05T06:59:50.869Z,97.27
2017-05-05T07:00:50.852Z,97.45
2017-05-05T07:01:50.821Z,96.6
2017-05-05T07:02:50.798Z,96.5
2017-05-05T07:03:50.775Z,96.69
2017-05-05T07:04:50.757Z,96.69
2017-05-05T07:05:50.730Z,96.79
2017-05-05T07:06:50.701Z,96.6
2017-05-05T07:07:50.680Z,96.6
2017-05-05T07:08:50.653Z,96.69
2017-05-05T07:09:50.633Z,96.69
2017-05-05T07:10:50.614Z,96.69
2017-05-05T07:11:50.587Z,96.98
2017-05-05T07:12:50.608Z,96.79
2017-05-05T07:13:50.536Z,96.31
2017-05-05T07:14:50.520Z,96.41
2017-05-05T07:15:50.491Z,96.41
2017-05-05T07:16:50.672Z,96.03
2017-05-05T07:17:50.146Z,96.41
2017-05-05T07:18:50.132Z,96.41
2017-05-05T07:19:50.393Z,95.36
2017-05-05T07:20:50.408Z,95.84
2017-05-05T07:21:50.361Z,95.65
2017-05-05T07:22:50.334Z,95.75
2017-05-05T07:23:50.301Z,95.7
2017-05-05T07:24:50.284Z,95.27
2017-05-05T07:25:50.261Z,95.17
2017-05-05T07:26:50.277Z,95.32
2017-05-05T07:27:50.205Z,95.12
2017-05-05T07:28:50.179Z,95.36
2017-05-05T07:29:50.161Z,95.46
2017-05-05T07:30:50.136Z,95.27
2017-05-05T07:31:50.119Z,95.08
2017-05-05T07:32:50.086Z,95.84
2017-05-05T07:33:50.066Z,95.46
2017-05-05T07:34:50.045Z,95.56
2017-05-05T07:35:50.015Z,95.56
2017-05-05T07:36:49.997Z,95.65
2017-05-05T07:37:49.971Z,95.56
2017-05-05T07:38:49.953Z,95.46
2017-05-05T07:39:49.622Z,95.46
2017-05-05T07:40:49.601Z,95.46
2017-05-05T07:41:49.888Z,95.46
2017-05-05T07:42:49.866Z,95.65
2017-05-05T07:43:49.835Z,95.36
2017-05-05T07:44:49.801Z,95.08
2017-05-05T07:45:49.786Z,95.65
2017-05-05T07:46:49.764Z,95.94
2017-05-05T07:47:49.745Z,95.17
2017-05-05T07:48:49.712Z,95.84
2017-05-05T07:49:49.689Z,95.65
2017-05-05T07:50:49.666Z,95.46
2017-05-05T07:51:49.643Z,95.94
2017-05-05T07:52:49.617Z,95.84
2017-05-05T07:53:49.646Z,95.27
2017-05-05T07:54:49.577Z,94.98
2017-05-05T07:55:49.551Z,95.65
2017-05-05T07:56:49.528Z,94.98
2017-05-05T07:57:49.500Z,95.84
2017-05-05T07:58:49.480Z,95.84
2017-05-05T07:59:49.456Z,95.46
2017-05-05T08:00:49.483Z,94.89
2017-05-05T08:01:49.406Z,95.08
2017-05-05T08:02:49.386Z,95.17
2017-05-05T08:03:49.364Z,94.98
2017-05-05T08:04:49.339Z,95.08
2017-05-05T08:05:49.317Z,95.08
2017-05-05T08:06:49.290Z,94.98
2017-05-05T08:07:49.279Z,94.79
2017-05-05T08:08:49.246Z,94.98
2017-05-05T08:09:49.216Z,94.98
2017-05-05T08:10:49.194Z,94.79
2017-05-05T08:11:49.176Z,95.08
2017-05-05T08:12:49.153Z,94.22
2017-05-05T08:13:49.128Z,94.79
2017-05-05T08:14:49.104Z,95.08
2017-05-05T08:15:49.134Z,94.74
2017-05-05T08:16:49.308Z,94.65
2017-05-05T08:17:49.032Z,94.74
2017-05-05T08:18:49.010Z,94.56
2017-05-05T08:19:48.996Z,94.08
2017-05-05T08:20:48.667Z,93.89
2017-05-05T08:21:48.640Z,94.18
2017-05-05T08:22:48.919Z,93.98
2017-05-05T08:23:48.942Z,94.27
2017-05-05T08:24:49.118Z,94.18
2017-05-05T08:25:48.845Z,94.27
2017-05-05T08:26:48.860Z,93.7
2017-05-05T08:27:48.804Z,93.79
2017-05-05T08:28:48.787Z,93.7
2017-05-05T08:29:48.758Z,93.79
2017-05-05T08:30:48.733Z,93.6
2017-05-05T08:31:48.705Z,93.7
2017-05-05T08:32:48.683Z,93.32
2017-05-05T08:33:48.672Z,93.89
2017-05-05T08:34:48.638Z,93.23
2017-05-05T08:35:48.619Z,93.13
2017-05-05T08:36:48.596Z,93.23
2017-05-05T08:37:48.577Z,92.94
2017-05-05T08:38:48.552Z,93.23
2017-05-05T08:39:48.522Z,92.84
2017-05-05T08:40:48.500Z,92.75
2017-05-05T08:41:48.533Z,92.94
2017-05-05T08:42:48.454Z,92.75
2017-05-05T08:43:48.132Z,93.18
2017-05-05T08:44:48.410Z,92.41
2017-05-05T08:45:48.385Z,92.27
2017-05-05T08:46:48.367Z,93.37
2017-05-05T08:47:48.371Z,92.99
2017-05-05T08:48:48.322Z,92.51
2017-05-05T08:49:48.296Z,92.41
2017-05-05T08:50:48.278Z,92.79
2017-05-05T08:51:48.254Z,92.22
2017-05-05T08:52:48.224Z,92.41
2017-05-05T08:53:48.210Z,92.51
2017-05-05T08:54:48.182Z,91.94
2017-05-05T08:55:48.166Z,91.84
2017-05-05T08:56:48.139Z,91.94
2017-05-05T08:57:48.117Z,91.65
2017-05-05T08:58:48.090Z,91.65
2017-05-05T08:59:48.120Z,91.84
2017-05-05T09:00:48.041Z,91.75
2017-05-05T09:01:48.027Z,92.03
2017-05-05T09:02:48.047Z,91.84
2017-05-05T09:03:47.976Z,91.8
2017-05-05T09:04:47.957Z,91.94
2017-05-05T09:05:47.936Z,92.18
2017-05-05T09:06:47.910Z,92.22
2017-05-05T09:07:47.941Z,91.75
2017-05-05T09:08:47.573Z,92.6
2017-05-05T09:09:47.846Z,91.84
2017-05-05T09:10:47.822Z,91.84
2017-05-05T09:11:47.796Z,92.41
2017-05-05T09:12:47.770Z,91.84
2017-05-05T09:13:47.749Z,92.03
2017-05-05T09:14:47.723Z,92.13
2017-05-05T09:15:47.763Z,91.94
2017-05-05T09:16:47.731Z,92.32
2017-05-05T09:17:47.715Z,92.41
2017-05-05T09:18:47.639Z,91.84
2017-05-05T09:19:47.612Z,91.94
2017-05-05T09:20:47.594Z,92.08
2017-05-05T09:21:47.569Z,91.7
2017-05-05T09:22:47.546Z,91.99
2017-05-05T09:23:47.523Z,92.36
2017-05-05T09:24:47.248Z,92.56
2017-05-05T09:25:47.483Z,92.36
2017-05-05T09:26:47.451Z,92.46
2017-05-05T09:27:47.427Z,92.94
2017-05-05T09:28:47.409Z,92.7
2017-05-05T09:29:47.382Z,92.56
2017-05-05T09:30:47.366Z,92.56
2017-05-05T09:31:47.344Z,92.6
2017-05-05T09:32:47.309Z,92.36
2017-05-05T09:33:47.293Z,92.27
2017-05-05T09:34:47.267Z,91.99
2017-05-05T09:35:46.943Z,92.27
2017-05-05T09:36:46.925Z,92.46
2017-05-05T09:37:47.199Z,91.8
2017-05-05T09:38:47.179Z,92.94
2017-05-05T09:39:47.160Z,91.8
2017-05-05T09:40:47.129Z,92.94
2017-05-05T09:41:47.113Z,92.94
2017-05-05T09:42:47.094Z,93.13
2017-05-05T09:43:47.059Z,92.84
2017-05-05T09:44:47.038Z,93.04
2017-05-05T09:45:47.014Z,93.13
2017-05-05T09:46:46.999Z,92.94
2017-05-05T09:47:46.967Z,92.94
2017-05-05T09:48:46.949Z,92.75
2017-05-05T09:49:46.921Z,92.84
2017-05-05T09:50:46.900Z,93.13
2017-05-05T09:51:46.575Z,92.56
2017-05-05T09:52:46.861Z,92.84
2017-05-05T09:53:46.832Z,93.13
2017-05-05T09:54:46.831Z,92.75
2017-05-05T09:55:46.785Z,92.75
2017-05-05T09:56:46.767Z,92.65
2017-05-05T09:57:46.742Z,93.32
2017-05-05T09:58:46.716Z,93.04
2017-05-05T09:59:46.691Z,92.94
2017-05-05T10:00:46.668Z,93.04
2017-05-05T10:01:46.702Z,92.94
2017-05-05T10:02:46.624Z,93.04
2017-05-05T10:03:46.608Z,92.94
2017-05-05T10:04:46.582Z,92.56
2017-05-05T10:05:46.558Z,92.36
2017-05-05T10:06:46.539Z,92.46
2017-05-05T10:07:46.561Z,92.65
2017-05-05T10:08:46.489Z,92.94
2017-05-05T10:09:46.462Z,92.94
2017-05-05T10:10:46.447Z,92.56
2017-05-05T10:11:46.427Z,92.18
2017-05-05T10:12:46.427Z,91.89
2017-05-05T10:13:46.370Z,91.89
2017-05-05T10:14:46.345Z,91.99
2017-05-05T10:15:46.323Z,92.08
2017-05-05T10:16:46.300Z,91.8
2017-05-05T10:17:46.308Z,92.65
2017-05-05T10:18:46.263Z,92.27
2017-05-05T10:19:46.235Z,92.08
2017-05-05T10:20:46.216Z,92.36
2017-05-05T10:21:46.180Z,92.18
2017-05-05T10:22:46.165Z,92.18
2017-05-05T10:23:46.145Z,91.99
2017-05-05T10:24:46.117Z,91.89
2017-05-05T10:25:46.097Z,92.18
2017-05-05T10:26:46.070Z,92.18
2017-05-05T10:27:46.050Z,92.56
2017-05-05T10:28:46.028Z,92.56
2017-05-05T10:29:46.019Z,91.89
2017-05-05T10:30:45.980Z,92.56
2017-05-05T10:31:45.959Z,93.13
2017-05-05T10:32:45.937Z,92.94
2017-05-05T10:33:45.913Z,92.94
2017-05-05T10:34:45.886Z,92.94
2017-05-05T10:35:45.562Z,92.65
2017-05-05T10:36:45.841Z,92.56
2017-05-05T10:37:45.818Z,92.56
2017-05-05T10:38:45.791Z,92.56
2017-05-05T10:39:45.789Z,92.18
2017-05-05T10:40:45.748Z,92.41
2017-05-05T10:41:45.432Z,91.75
2017-05-05T10:42:45.705Z,91.56
2017-05-05T10:43:45.678Z,91.75
2017-05-05T10:44:45.655Z,91.27
2017-05-05T10:45:45.637Z,90.89
2017-05-05T10:46:45.613Z,91.08
2017-05-05T10:47:45.593Z,90.51
2017-05-05T10:48:45.566Z,90.56
2017-05-05T10:49:45.544Z,90.08
2017-05-05T10:50:45.523Z,89.61
2017-05-05T10:51:45.510Z,89.98
2017-05-05T10:52:45.485Z,89.51
2017-05-05T10:53:45.454Z,88.84
2017-05-05T10:54:45.732Z,89.13
2017-05-05T10:55:45.407Z,88.56
2017-05-05T10:56:45.386Z,88.08
2017-05-05T10:57:45.361Z,87.6
2017-05-05T10:58:45.345Z,87.7
2017-05-05T10:59:45.342Z,88.08
2017-05-05T11:00:45.298Z,87.89
2017-05-05T11:01:44.969Z,87.98
2017-05-05T11:02:45.257Z,87.7
2017-05-05T11:03:45.240Z,87.89
2017-05-05T11:04:45.205Z,87.17
2017-05-05T11:05:45.183Z,87.51
2017-05-05T11:06:45.162Z,87.41
2017-05-05T11:07:45.139Z,87.03
2017-05-05T11:08:44.819Z,87.7
2017-05-05T11:09:45.092Z,87.07
2017-05-05T11:10:45.076Z,87.55
2017-05-05T11:11:45.101Z,87.13
2017-05-05T11:12:45.078Z,87.51
2017-05-05T11:13:45.004Z,87.89
2017-05-05T11:14:44.986Z,88.08
2017-05-05T11:15:44.959Z,87.36
2017-05-05T11:16:44.940Z,88.03
2017-05-05T11:17:44.916Z,87.89
2017-05-05T11:18:44.894Z,87.89
2017-05-05T11:19:44.873Z,87.79
2017-05-05T11:20:44.849Z,87.98
2017-05-05T11:21:44.829Z,88.93
2017-05-05T11:22:44.806Z,89.03
2017-05-05T11:23:44.801Z,89.56
2017-05-05T11:24:44.764Z,89.27
2017-05-05T11:25:44.755Z,89.75
2017-05-05T11:26:44.715Z,90.03
2017-05-05T11:27:44.692Z,90.32
2017-05-05T11:28:44.675Z,90.8
2017-05-05T11:29:44.682Z,90.22
2017-05-05T11:30:44.627Z,90.13
2017-05-05T11:31:44.606Z,90.22
2017-05-05T11:32:44.580Z,89.84
2017-05-05T11:33:44.559Z,90.03
2017-05-05T11:34:44.542Z,90.22
2017-05-05T11:35:44.513Z,89.89
2017-05-05T11:36:44.500Z,89.7
2017-05-05T11:37:44.477Z,89.79
2017-05-05T11:38:44.448Z,90.17
2017-05-05T11:39:44.123Z,89.41
2017-05-05T11:40:44.408Z,89.32
2017-05-05T11:41:44.392Z,88.93
2017-05-05T11:42:44.370Z,89.41
2017-05-05T11:43:44.334Z,89.22
2017-05-05T11:44:44.315Z,88.75
2017-05-05T11:45:44.298Z,88.46
2017-05-05T11:46:44.269Z,87.89
2017-05-05T11:47:44.246Z,88.46
2017-05-05T11:48:44.231Z,88.41
2017-05-05T11:49:44.201Z,88.22
2017-05-05T11:50:44.180Z,87.7
2017-05-05T11:51:44.152Z,87.89
2017-05-05T11:52:44.135Z,88.03
2017-05-05T11:53:44.118Z,87.93
2017-05-05T11:54:44.089Z,87.17
2017-05-05T11:55:44.070Z,87.27
2017-05-05T11:56:44.057Z,87.36
2017-05-05T11:57:44.024Z,87.17
2017-05-05T11:58:43.998Z,86.98
2017-05-05T11:59:43.981Z,87.23
2017-05-05T12:00:43.955Z,87.51
2017-05-05T12:01:43.946Z,86.94
2017-05-05T12:02:43.609Z,86.98
2017-05-05T12:03:43.892Z,87.65
2017-05-05T12:04:43.917Z,87.17
2017-05-05T12:05:43.844Z,87.17
2017-05-05T12:06:43.828Z,87.27
2017-05-05T12:07:43.806Z,86.69
2017-05-05T12:08:43.778Z,86.51
2017-05-05T12:09:43.755Z,86.41
2017-05-05T12:10:43.742Z,86.12
2017-05-05T12:11:43.714Z,86.22
2017-05-05T12:12:43.688Z,85.93
2017-05-05T12:13:43.667Z,85.69
2017-05-05T12:14:43.645Z,85.88
2017-05-05T12:15:43.628Z,85.6
2017-05-05T12:16:43.610Z,85.5
2017-05-05T12:17:43.581Z,85.02
2017-05-05T12:18:43.558Z,84.74
2017-05-05T12:19:43.547Z,84.97
2017-05-05T12:20:43.521Z,84.49
2017-05-05T12:21:43.492Z,84.2
2017-05-05T12:22:43.472Z,83.54
2017-05-05T12:23:43.502Z,83.16
2017-05-05T12:24:43.481Z,82.87
2017-05-05T12:25:43.407Z,82.68
2017-05-05T12:26:43.388Z,82.01
2017-05-05T12:27:43.377Z,81.63
2017-05-05T12:28:43.344Z,82.2
2017-05-05T12:29:43.351Z,82.11
2017-05-05T12:30:43.301Z,82.49
2017-05-05T12:31:43.280Z,82.59
2017-05-05T12:32:43.260Z,82.4
2017-05-05T12:33:43.240Z,82.4
2017-05-05T12:34:42.915Z,82.59
2017-05-05T12:35:43.195Z,82.11
2017-05-05T12:36:43.174Z,82.01
2017-05-05T12:37:43.150Z,82.01
2017-05-05T12:38:43.141Z,81.92
2017-05-05T12:39:43.116Z,80.87
2017-05-05T12:40:43.093Z,81.35
2017-05-05T12:41:43.075Z,81.63
2017-05-05T12:42:43.051Z,82.01
2017-05-05T12:43:43.030Z,81.54
2017-05-05T12:44:43.012Z,81.63
2017-05-05T12:45:42.988Z,82.78
2017-05-05T12:46:42.960Z,82.01
2017-05-05T12:47:42.945Z,81.82
2017-05-05T12:48:42.936Z,81.73
2017-05-05T12:49:42.906Z,82.11
2017-05-05T12:50:42.906Z,82.11
2017-05-05T12:51:42.926Z,82.3
2017-05-05T12:52:42.843Z,82.3
2017-05-05T12:53:42.822Z,82.01